Gillette, WY

7:27 AM MDT on August 22, 2014 (GMT -0600)
Gillette-Campbell County | Change Station
CLOSE
Current Station
Airport
Location: Gillette,
Elevation: 4364 ft
Nearby Weather Stations

Elev 4364 ft 44.34 °N, 105.54 °W | Updated 13 minutes ago

Partly Cloudy
Partly Cloudy
59 °F
Feels Like 59 °F
N
0
Wind Variable Wind from North

Today
High -- | Low -- °F
--% Chance of Precip.
Yesterday
High -- | Low -- °F
Precip. -- in
6:13 AM 7:56 PM
Waning Crescent, 8% visible
Pressure 30.13 in
Visibility 10.0 miles
Clouds Few 1900 ft
Dew Point 54 °F
Humidity 83%
Rainfall 0.00 in
Snow Depth Not available.
UV 0 out of 12
Pollen 6.70 out of 12
Air Quality Not available.
Flu Activity Not available.
SPECI KGCC 221314Z AUTO 00000KT 10SM FEW019 15/12 A3013 RMK AO2 T01500122

More Conditions Fewer Conditions

Pressure 30.13 in
Visibility 10.0 miles
Clouds Few 1900 ft
Dew Point 54 °F
Humidity 83%
Rainfall 0.00 in
Snow Depth Not available.
UV 0 out of 12
Pollen 6.70 out of 12
Air Quality Not available.
Flu Activity Not available.
SPECI KGCC 221314Z AUTO 00000KT 10SM FEW019 15/12 A3013 RMK AO2 T01500122

More Conditions Fewer Conditions

10-Day Weather Forecast

Almanac

Astronomy

Aug. 22, 2014 Rise Set
Actual Time 6:13 AM MDT 7:56 PM MDT
Civil Twilight 5:42 AM MDT 8:27 PM MDT
Nautical Twilight 5:04 AM MDT 9:04 PM MDT
Astronomical Twilight 4:24 AM MDT 9:45 PM MDT
Moon 3:35 AM MDT 6:08 PM MDT
Length of Visible Light 14h 44m
Length of Day
13h 43m
Tomorrow will be 2m 53s shorter.
Waning Crescent, 8% of the Moon is Illuminated
Today
Waning Crescent
Aug 25
New
Sep 2
First Quarter
Sep 8
Full
Sep 15
Last Quarter

Today's Extremes

State Highs State Lows

Community

WunderPhotos

Upload Photos

1,746,164 photos uploaded!

Nearby

Snow Depth

Station Depth Elevation
Casper Mountain 1 in 7850 ft
Reno Hill 0 in 8500 ft
Sand Lake 0 in 10050 ft
Sylvan Lake 0 in 8420 ft
Brooklyn Lake 0 in 10220 ft

Earthquake Activity

City Distance Mag. Time & Date
No recent earthquake activity has been reported nearby.
Minimum magnitude displayed is 2.5.

Coastal Water Temperatures

Place Temperature
No Stations Reporting

Nearby Weather Stations